TIST/STT METAR and TAF weather

Enter ICAO airport designator
Station Type Date Time Source
TIST METAR 2019/10/14 06:53 UTC NOAA

TIST 140653Z AUTO 07004KT 10SM CLR 27/22 A2992 RMK AO2 SLP131 T02720222 $


Station Type Date Time Source
TIST Decoded METAR 2019/10/14 06:53 UTC NOAA

Charlotte Amalie St. Thomas, Cyril E. King Airport, Virgin Islands (TIST) 18-20N 064-59W
Oct 14, 2019 - 02:53 AM EDT / 2019.10.14 0653 UTC
Wind: from the ENE (070 degrees) at 5 MPH (4 KT):0
Visibility: 10 mile(s):0
Sky conditions: clear
Temperature: 81.0 F (27.2 C)
Dew Point: 72.0 F (22.2 C)
Relative Humidity: 74%
Pressure (altimeter): 29.92 in. Hg (1013 hPa)
ob: TIST 140653Z AUTO 07004KT 10SM CLR 27/22 A2992 RMK AO2 SLP131 T02720222
cycle: 7

Station Type Date Time Source
TIST TAF 2019/10/14 06:46 UTC NOAA

TAF TIST 140539Z 1406/1506 08005KT P6SM VCSH FEW025
FM141400 07010KT P6SM SCT025
FM142200 07005KT P6SM VCSH FEW025

Example: see airport list